sensor_id;sensor_type;location;lat;lon;timestamp;pressure;altitude;pressure_sealevel;temperature;humidity
81274;BME280;70753;47.908;11.274;2023-11-21T00:02:05;94283.91;;;9.90;57.57
81274;BME280;70753;47.908;11.274;2023-11-21T00:04:51;94277.03;;;9.89;58.44
81274;BME280;70753;47.908;11.274;2023-11-21T00:07:38;94275.19;;;10.03;58.04
81274;BME280;70753;47.908;11.274;2023-11-21T00:10:24;94269.97;;;10.31;56.77
81274;BME280;70753;47.908;11.274;2023-11-21T00:13:10;94268.47;;;10.25;57.40
81274;BME280;70753;47.908;11.274;2023-11-21T00:15:55;94266.91;;;10.24;57.81
81274;BME280;70753;47.908;11.274;2023-11-21T00:18:41;94263.06;;;10.30;57.57
81274;BME280;70753;47.908;11.274;2023-11-21T00:21:27;94262.97;;;10.35;57.86
81274;BME280;70753;47.908;11.274;2023-11-21T00:24:14;94254.06;;;10.26;57.65
81274;BME280;70753;47.908;11.274;2023-11-21T00:27:00;94254.38;;;10.38;58.42
81274;BME280;70753;47.908;11.274;2023-11-21T00:29:45;94254.31;;;10.43;58.11
81274;BME280;70753;47.908;11.274;2023-11-21T00:32:31;94251.16;;;10.41;58.99
81274;BME280;70753;47.908;11.274;2023-11-21T00:35:17;94243.94;;;10.55;58.52
81274;BME280;70753;47.908;11.274;2023-11-21T00:38:03;94251.25;;;10.49;58.19
81274;BME280;70753;47.908;11.274;2023-11-21T00:40:50;94259.91;;;9.77;59.67
81274;BME280;70753;47.908;11.274;2023-11-21T00:43:35;94253.25;;;9.42;61.56
81274;BME280;70753;47.908;11.274;2023-11-21T00:46:21;94255.47;;;9.35;62.00
81274;BME280;70753;47.908;11.274;2023-11-21T00:49:07;94253.16;;;9.28;62.80
81274;BME280;70753;47.908;11.274;2023-11-21T00:51:53;94250.78;;;9.64;61.96
81274;BME280;70753;47.908;11.274;2023-11-21T00:54:38;94252.81;;;9.72;61.45
81274;BME280;70753;47.908;11.274;2023-11-21T00:57:26;94262.34;;;9.17;63.25
81274;BME280;70753;47.908;11.274;2023-11-21T01:00:12;94256.31;;;9.12;63.51
81274;BME280;70753;47.908;11.274;2023-11-21T01:02:58;94257.53;;;9.19;63.53
81274;BME280;70753;47.908;11.274;2023-11-21T01:05:44;94245.88;;;8.55;65.30
81274;BME280;70753;47.908;11.274;2023-11-21T01:08:30;94255.44;;;8.98;64.01
81274;BME280;70753;47.908;11.274;2023-11-21T01:11:16;94246.13;;;9.38;62.03
81274;BME280;70753;47.908;11.274;2023-11-21T01:14:03;94258.13;;;9.16;62.63
81274;BME280;70753;47.908;11.274;2023-11-21T01:16:49;94253.22;;;9.23;62.09
81274;BME280;70753;47.908;11.274;2023-11-21T01:19:35;94254.22;;;9.09;62.52
81274;BME280;70753;47.908;11.274;2023-11-21T01:22:21;94239.38;;;9.08;62.75
81274;BME280;70753;47.908;11.274;2023-11-21T01:25:06;94244.75;;;9.03;63.58
81274;BME280;70753;47.908;11.274;2023-11-21T01:27:52;94247.34;;;9.08;63.07
81274;BME280;70753;47.908;11.274;2023-11-21T01:30:39;94244.03;;;9.16;62.59
81274;BME280;70753;47.908;11.274;2023-11-21T01:33:25;94243.59;;;9.09;62.53
81274;BME280;70753;47.908;11.274;2023-11-21T01:36:11;94247.09;;;9.04;62.92
81274;BME280;70753;47.908;11.274;2023-11-21T01:38:56;94242.03;;;9.08;62.69
81274;BME280;70753;47.908;11.274;2023-11-21T01:41:42;94241.53;;;9.06;62.57
81274;BME280;70753;47.908;11.274;2023-11-21T01:44:28;94251.34;;;8.87;63.86
81274;BME280;70753;47.908;11.274;2023-11-21T01:47:16;94246.75;;;8.92;63.46
81274;BME280;70753;47.908;11.274;2023-11-21T01:50:02;94256.25;;;9.17;62.40
81274;BME280;70753;47.908;11.274;2023-11-21T01:52:48;94254.66;;;9.16;63.25
81274;BME280;70753;47.908;11.274;2023-11-21T01:55:34;94246.63;;;9.21;62.01
81274;BME280;70753;47.908;11.274;2023-11-21T01:58:21;94253.03;;;9.20;62.35
81274;BME280;70753;47.908;11.274;2023-11-21T02:01:06;94261.09;;;9.34;62.51
81274;BME280;70753;47.908;11.274;2023-11-21T02:03:53;94248.00;;;9.37;62.79
81274;BME280;70753;47.908;11.274;2023-11-21T02:06:39;94254.75;;;9.30;63.32
81274;BME280;70753;47.908;11.274;2023-11-21T02:09:26;94241.59;;;9.38;62.89
81274;BME280;70753;47.908;11.274;2023-11-21T02:12:12;94236.28;;;9.38;63.08
81274;BME280;70753;47.908;11.274;2023-11-21T02:14:57;94251.50;;;9.33;63.51
81274;BME280;70753;47.908;11.274;2023-11-21T02:17:43;94245.78;;;9.44;63.27
81274;BME280;70753;47.908;11.274;2023-11-21T02:20:32;94250.59;;;9.42;63.43
81274;BME280;70753;47.908;11.274;2023-11-21T02:23:19;94251.53;;;9.51;63.27
81274;BME280;70753;47.908;11.274;2023-11-21T02:26:05;94248.34;;;9.49;63.20
81274;BME280;70753;47.908;11.274;2023-11-21T02:28:51;94251.94;;;9.58;63.34
81274;BME280;70753;47.908;11.274;2023-11-21T02:31:37;94244.06;;;9.53;63.05
81274;BME280;70753;47.908;11.274;2023-11-21T02:34:23;94247.63;;;9.62;62.82
81274;BME280;70753;47.908;11.274;2023-11-21T02:37:09;94247.72;;;9.57;63.12
81274;BME280;70753;47.908;11.274;2023-11-21T02:39:56;94248.34;;;9.68;63.08
81274;BME280;70753;47.908;11.274;2023-11-21T02:42:41;94246.56;;;9.63;62.13
81274;BME280;70753;47.908;11.274;2023-11-21T02:45:27;94239.88;;;9.66;61.26
81274;BME280;70753;47.908;11.274;2023-11-21T02:48:13;94245.22;;;9.79;61.00
81274;BME280;70753;47.908;11.274;2023-11-21T02:50:59;94249.78;;;9.60;61.55
81274;BME280;70753;47.908;11.274;2023-11-21T02:53:45;94246.63;;;9.58;62.69
81274;BME280;70753;47.908;11.274;2023-11-21T02:56:32;94247.78;;;9.52;63.45
81274;BME280;70753;47.908;11.274;2023-11-21T02:59:18;94244.19;;;9.62;62.97
81274;BME280;70753;47.908;11.274;2023-11-21T03:02:04;94242.03;;;9.64;62.80
81274;BME280;70753;47.908;11.274;2023-11-21T03:04:49;94239.38;;;9.64;63.00
81274;BME280;70753;47.908;11.274;2023-11-21T03:07:36;94241.78;;;9.60;62.00
81274;BME280;70753;47.908;11.274;2023-11-21T03:10:22;94244.59;;;9.87;60.58
81274;BME280;70753;47.908;11.274;2023-11-21T03:13:09;94245.56;;;9.91;59.00
81274;BME280;70753;47.908;11.274;2023-11-21T03:15:55;94229.91;;;9.71;59.95
81274;BME280;70753;47.908;11.274;2023-11-21T03:18:41;94237.59;;;9.73;59.74
81274;BME280;70753;47.908;11.274;2023-11-21T03:21:26;94227.34;;;9.66;60.65
81274;BME280;70753;47.908;11.274;2023-11-21T03:24:12;94229.69;;;9.86;60.72
81274;BME280;70753;47.908;11.274;2023-11-21T03:26:58;94228.50;;;9.92;61.29
81274;BME280;70753;47.908;11.274;2023-11-21T03:29:46;94230.03;;;9.98;61.21
81274;BME280;70753;47.908;11.274;2023-11-21T03:32:33;94224.97;;;9.97;59.21
81274;BME280;70753;47.908;11.274;2023-11-21T03:35:18;94229.00;;;9.94;59.63
81274;BME280;70753;47.908;11.274;2023-11-21T03:38:04;94220.31;;;9.89;60.32
81274;BME280;70753;47.908;11.274;2023-11-21T03:40:50;94228.34;;;10.02;59.55
81274;BME280;70753;47.908;11.274;2023-11-21T03:43:36;94228.13;;;10.18;59.38
81274;BME280;70753;47.908;11.274;2023-11-21T03:46:23;94227.81;;;10.19;59.74
81274;BME280;70753;47.908;11.274;2023-11-21T03:49:09;94228.13;;;10.18;59.91
81274;BME280;70753;47.908;11.274;2023-11-21T03:51:56;94229.84;;;10.09;60.16
81274;BME280;70753;47.908;11.274;2023-11-21T03:54:41;94226.34;;;10.13;61.17
81274;BME280;70753;47.908;11.274;2023-11-21T03:57:27;94224.97;;;10.16;60.87
81274;BME280;70753;47.908;11.274;2023-11-21T04:00:13;94230.69;;;10.23;59.67
81274;BME280;70753;47.908;11.274;2023-11-21T04:03:01;94226.69;;;10.07;59.52
81274;BME280;70753;47.908;11.274;2023-11-21T04:05:46;94223.53;;;10.04;60.19
81274;BME280;70753;47.908;11.274;2023-11-21T04:08:32;94224.03;;;10.07;59.50
81274;BME280;70753;47.908;11.274;2023-11-21T04:11:18;94218.63;;;10.12;59.68
81274;BME280;70753;47.908;11.274;2023-11-21T04:14:04;94223.88;;;10.17;59.94
81274;BME280;70753;47.908;11.274;2023-11-21T04:16:49;94220.53;;;9.92;60.63
81274;BME280;70753;47.908;11.274;2023-11-21T04:19:36;94227.44;;;9.93;61.24
81274;BME280;70753;47.908;11.274;2023-11-21T04:22:22;94226.53;;;9.84;61.81
81274;BME280;70753;47.908;11.274;2023-11-21T04:25:08;94218.72;;;9.88;62.93
81274;BME280;70753;47.908;11.274;2023-11-21T04:27:54;94228.19;;;9.80;63.00
81274;BME280;70753;47.908;11.274;2023-11-21T04:30:39;94229.56;;;9.78;62.68
81274;BME280;70753;47.908;11.274;2023-11-21T04:33:25;94233.56;;;9.75;63.41
81274;BME280;70753;47.908;11.274;2023-11-21T04:36:12;94227.56;;;9.70;63.56
81274;BME280;70753;47.908;11.274;2023-11-21T04:38:58;94241.81;;;9.92;62.75
81274;BME280;70753;47.908;11.274;2023-11-21T04:41:44;94232.00;;;9.56;64.04
81274;BME280;70753;47.908;11.274;2023-11-21T04:44:29;94244.06;;;9.53;64.44
81274;BME280;70753;47.908;11.274;2023-11-21T04:47:15;94248.81;;;9.88;63.85
81274;BME280;70753;47.908;11.274;2023-11-21T04:50:02;94253.13;;;9.84;63.60
81274;BME280;70753;47.908;11.274;2023-11-21T04:52:49;94247.03;;;9.65;64.57
81274;BME280;70753;47.908;11.274;2023-11-21T04:55:35;94249.66;;;9.70;64.83
81274;BME280;70753;47.908;11.274;2023-11-21T04:58:20;94246.16;;;9.88;64.23
81274;BME280;70753;47.908;11.274;2023-11-21T05:01:07;94253.06;;;9.89;64.12
81274;BME280;70753;47.908;11.274;2023-11-21T05:03:53;94250.03;;;9.77;64.27
81274;BME280;70753;47.908;11.274;2023-11-21T05:06:38;94249.66;;;9.33;66.35
81274;BME280;70753;47.908;11.274;2023-11-21T05:09:25;94252.31;;;9.33;66.48
81274;BME280;70753;47.908;11.274;2023-11-21T05:12:11;94242.16;;;9.35;66.38
81274;BME280;70753;47.908;11.274;2023-11-21T05:14:57;94250.50;;;9.10;67.72
81274;BME280;70753;47.908;11.274;2023-11-21T05:17:43;94251.38;;;9.24;67.71
81274;BME280;70753;47.908;11.274;2023-11-21T05:20:29;94261.25;;;9.00;68.06
81274;BME280;70753;47.908;11.274;2023-11-21T05:23:15;94255.41;;;9.40;67.15
81274;BME280;70753;47.908;11.274;2023-11-21T05:26:02;94255.91;;;9.42;68.89
81274;BME280;70753;47.908;11.274;2023-11-21T05:28:48;94252.53;;;9.55;68.61
81274;BME280;70753;47.908;11.274;2023-11-21T05:31:34;94249.66;;;9.70;68.67
81274;BME280;70753;47.908;11.274;2023-11-21T05:34:19;94249.66;;;9.70;68.78
81274;BME280;70753;47.908;11.274;2023-11-21T05:37:05;94250.41;;;9.71;68.78
81274;BME280;70753;47.908;11.274;2023-11-21T05:39:51;94256.69;;;9.61;69.18
81274;BME280;70753;47.908;11.274;2023-11-21T05:42:39;94260.44;;;9.23;68.57
81274;BME280;70753;47.908;11.274;2023-11-21T05:45:24;94259.34;;;9.05;68.69
81274;BME280;70753;47.908;11.274;2023-11-21T05:48:10;94264.50;;;9.15;68.68
81274;BME280;70753;47.908;11.274;2023-11-21T05:50:56;94262.66;;;8.74;70.48
81274;BME280;70753;47.908;11.274;2023-11-21T05:53:42;94271.28;;;9.08;69.36
81274;BME280;70753;47.908;11.274;2023-11-21T05:56:27;94266.25;;;9.25;68.86
81274;BME280;70753;47.908;11.274;2023-11-21T05:59:14;94266.97;;;9.31;68.71
81274;BME280;70753;47.908;11.274;2023-11-21T06:02:00;94274.66;;;9.32;67.67
81274;BME280;70753;47.908;11.274;2023-11-21T06:04:46;94271.06;;;9.23;67.66
81274;BME280;70753;47.908;11.274;2023-11-21T06:07:32;94274.09;;;9.35;67.39
81274;BME280;70753;47.908;11.274;2023-11-21T06:10:20;94280.16;;;9.17;67.87
81274;BME280;70753;47.908;11.274;2023-11-21T06:13:05;94280.91;;;9.22;68.57
81274;BME280;70753;47.908;11.274;2023-11-21T06:15:53;94284.78;;;9.30;67.82
81274;BME280;70753;47.908;11.274;2023-11-21T06:18:38;94289.47;;;9.38;68.33
81274;BME280;70753;47.908;11.274;2023-11-21T06:21:24;94286.31;;;9.36;68.33
81274;BME280;70753;47.908;11.274;2023-11-21T06:24:10;94289.28;;;9.53;66.97
81274;BME280;70753;47.908;11.274;2023-11-21T06:26:56;94289.03;;;9.31;67.85
81274;BME280;70753;47.908;11.274;2023-11-21T06:29:41;94290.41;;;9.28;68.80
81274;BME280;70753;47.908;11.274;2023-11-21T06:32:29;94289.91;;;9.45;67.60
81274;BME280;70753;47.908;11.274;2023-11-21T06:35:15;94294.19;;;9.04;68.57
81274;BME280;70753;47.908;11.274;2023-11-21T06:38:01;94284.94;;;9.20;68.51
81274;BME280;70753;47.908;11.274;2023-11-21T06:40:46;94285.78;;;9.15;68.62
81274;BME280;70753;47.908;11.274;2023-11-21T06:43:32;94287.03;;;9.23;68.11
81274;BME280;70753;47.908;11.274;2023-11-21T06:46:18;94297.66;;;9.23;68.33
81274;BME280;70753;47.908;11.274;2023-11-21T06:49:05;94302.19;;;9.22;68.38
81274;BME280;70753;47.908;11.274;2023-11-21T06:51:51;94303.72;;;9.05;68.79
81274;BME280;70753;47.908;11.274;2023-11-21T06:54:36;94304.03;;;9.03;69.22
81274;BME280;70753;47.908;11.274;2023-11-21T06:57:23;94309.09;;;9.00;69.89
81274;BME280;70753;47.908;11.274;2023-11-21T07:00:09;94314.38;;;9.05;68.78
81274;BME280;70753;47.908;11.274;2023-11-21T07:02:55;94304.16;;;8.70;70.63
81274;BME280;70753;47.908;11.274;2023-11-21T07:05:42;94310.47;;;8.97;70.11
81274;BME280;70753;47.908;11.274;2023-11-21T07:08:28;94306.00;;;8.93;70.23
81274;BME280;70753;47.908;11.274;2023-11-21T07:11:14;94323.25;;;9.19;68.95
81274;BME280;70753;47.908;11.274;2023-11-21T07:13:59;94310.63;;;9.06;69.29
81274;BME280;70753;47.908;11.274;2023-11-21T07:16:45;94312.72;;;9.09;68.79
81274;BME280;70753;47.908;11.274;2023-11-21T07:19:31;94310.13;;;9.04;69.50
81274;BME280;70753;47.908;11.274;2023-11-21T07:22:18;94313.97;;;8.93;70.46
81274;BME280;70753;47.908;11.274;2023-11-21T07:25:04;94319.03;;;9.13;68.83
81274;BME280;70753;47.908;11.274;2023-11-21T07:27:50;94322.78;;;9.12;68.28
81274;BME280;70753;47.908;11.274;2023-11-21T07:30:36;94327.97;;;9.22;68.27
81274;BME280;70753;47.908;11.274;2023-11-21T07:33:22;94332.28;;;9.18;68.44
81274;BME280;70753;47.908;11.274;2023-11-21T07:36:08;94328.78;;;9.22;68.29
81274;BME280;70753;47.908;11.274;2023-11-21T07:38:55;94330.00;;;9.30;68.36
81274;BME280;70753;47.908;11.274;2023-11-21T07:41:41;94330.75;;;9.36;68.39
81274;BME280;70753;47.908;11.274;2023-11-21T07:44:27;94334.78;;;9.09;70.06
81274;BME280;70753;47.908;11.274;2023-11-21T07:47:12;94330.94;;;9.39;68.94
81274;BME280;70753;47.908;11.274;2023-11-21T07:49:58;94331.59;;;9.31;67.24
81274;BME280;70753;47.908;11.274;2023-11-21T07:52:44;94338.91;;;9.20;67.12
81274;BME280;70753;47.908;11.274;2023-11-21T07:55:31;94327.59;;;9.10;67.43
81274;BME280;70753;47.908;11.274;2023-11-21T07:58:17;94334.41;;;8.97;68.16
81274;BME280;70753;47.908;11.274;2023-11-21T08:01:03;94333.72;;;8.87;67.96
81274;BME280;70753;47.908;11.274;2023-11-21T08:03:49;94342.88;;;8.76;69.08
81274;BME280;70753;47.908;11.274;2023-11-21T08:06:35;94339.09;;;9.05;67.97
81274;BME280;70753;47.908;11.274;2023-11-21T08:09:20;94341.78;;;9.24;67.49
81274;BME280;70753;47.908;11.274;2023-11-21T08:12:08;94344.25;;;9.39;68.78
81274;BME280;70753;47.908;11.274;2023-11-21T08:14:53;94342.75;;;9.52;67.12
81274;BME280;70753;47.908;11.274;2023-11-21T08:17:39;94346.19;;;9.34;67.42
81274;BME280;70753;47.908;11.274;2023-11-21T08:20:25;94343.66;;;9.66;65.59
81274;BME280;70753;47.908;11.274;2023-11-21T08:23:11;94347.66;;;9.45;65.84
81274;BME280;70753;47.908;11.274;2023-11-21T08:25:56;94343.81;;;9.32;66.65
81274;BME280;70753;47.908;11.274;2023-11-21T08:28:44;94349.00;;;9.42;66.62
81274;BME280;70753;47.908;11.274;2023-11-21T08:31:29;94342.38;;;9.21;67.11
81274;BME280;70753;47.908;11.274;2023-11-21T08:34:15;94347.72;;;9.58;67.34
81274;BME280;70753;47.908;11.274;2023-11-21T08:37:01;94347.91;;;9.43;65.74
81274;BME280;70753;47.908;11.274;2023-11-21T08:39:47;94350.16;;;9.36;65.94
81274;BME280;70753;47.908;11.274;2023-11-21T08:42:32;94342.78;;;9.28;66.66
81274;BME280;70753;47.908;11.274;2023-11-21T08:45:21;94345.06;;;9.16;67.27
81274;BME280;70753;47.908;11.274;2023-11-21T08:48:07;94347.56;;;8.84;67.92
81274;BME280;70753;47.908;11.274;2023-11-21T08:50:53;94360.13;;;9.02;67.28
81274;BME280;70753;47.908;11.274;2023-11-21T08:53:38;94350.28;;;9.02;67.73
81274;BME280;70753;47.908;11.274;2023-11-21T08:56:24;94353.69;;;9.08;67.34
81274;BME280;70753;47.908;11.274;2023-11-21T08:59:10;94356.44;;;8.98;67.67
81274;BME280;70753;47.908;11.274;2023-11-21T09:01:57;94349.44;;;9.07;68.14
81274;BME280;70753;47.908;11.274;2023-11-21T09:04:43;94350.06;;;8.99;68.54
81274;BME280;70753;47.908;11.274;2023-11-21T09:07:28;94353.19;;;9.06;67.93
81274;BME280;70753;47.908;11.274;2023-11-21T09:10:14;94359.09;;;8.98;68.19
81274;BME280;70753;47.908;11.274;2023-11-21T09:13:00;94366.00;;;8.99;67.60
81274;BME280;70753;47.908;11.274;2023-11-21T09:15:46;94363.16;;;8.67;69.56
81274;BME280;70753;47.908;11.274;2023-11-21T09:18:33;94368.28;;;8.87;69.59
81274;BME280;70753;47.908;11.274;2023-11-21T09:21:18;94373.50;;;8.92;69.42
81274;BME280;70753;47.908;11.274;2023-11-21T09:24:05;94367.81;;;9.27;68.92
81274;BME280;70753;47.908;11.274;2023-11-21T09:26:51;94375.50;;;9.28;68.14
81274;BME280;70753;47.908;11.274;2023-11-21T09:29:37;94375.03;;;8.98;68.22
81274;BME280;70753;47.908;11.274;2023-11-21T09:32:22;94385.84;;;9.06;68.18
81274;BME280;70753;47.908;11.274;2023-11-21T09:35:10;94383.97;;;9.31;68.45
81274;BME280;70753;47.908;11.274;2023-11-21T09:37:55;94384.09;;;9.44;67.79
81274;BME280;70753;47.908;11.274;2023-11-21T09:40:41;94380.59;;;9.25;67.69
81274;BME280;70753;47.908;11.274;2023-11-21T09:43:28;94386.56;;;9.59;67.13
81274;BME280;70753;47.908;11.274;2023-11-21T09:46:16;94374.22;;;9.68;66.22
81274;BME280;70753;47.908;11.274;2023-11-21T09:49:02;94380.47;;;9.77;67.01
81274;BME280;70753;47.908;11.274;2023-11-21T09:51:52;94381.00;;;9.98;65.62
81274;BME280;70753;47.908;11.274;2023-11-21T09:54:40;94378.69;;;9.91;66.44
81274;BME280;70753;47.908;11.274;2023-11-21T09:57:26;94376.69;;;9.83;66.47
81274;BME280;70753;47.908;11.274;2023-11-21T10:00:13;94378.09;;;9.94;66.03
81274;BME280;70753;47.908;11.274;2023-11-21T10:03:00;94379.81;;;10.04;66.77
81274;BME280;70753;47.908;11.274;2023-11-21T10:05:48;94375.78;;;10.44;66.32
81274;BME280;70753;47.908;11.274;2023-11-21T10:08:37;94375.00;;;10.43;63.74
81274;BME280;70753;47.908;11.274;2023-11-21T10:11:23;94372.16;;;10.21;64.94
81274;BME280;70753;47.908;11.274;2023-11-21T10:14:11;94370.78;;;10.24;66.24
81274;BME280;70753;47.908;11.274;2023-11-21T10:16:57;94376.31;;;10.27;65.26
81274;BME280;70753;47.908;11.274;2023-11-21T10:19:43;94370.13;;;10.64;63.01
81274;BME280;70753;47.908;11.274;2023-11-21T10:22:31;94378.47;;;10.07;64.22
81274;BME280;70753;47.908;11.274;2023-11-21T10:25:18;94381.13;;;10.07;64.87
81274;BME280;70753;47.908;11.274;2023-11-21T10:28:04;94392.16;;;10.19;64.09
81274;BME280;70753;47.908;11.274;2023-11-21T10:30:50;94378.66;;;10.29;64.24
81274;BME280;70753;47.908;11.274;2023-11-21T10:33:36;94382.13;;;10.48;64.59
81274;BME280;70753;47.908;11.274;2023-11-21T10:36:25;94385.19;;;10.55;63.57
81274;BME280;70753;47.908;11.274;2023-11-21T10:39:14;94376.78;;;10.48;63.83
81274;BME280;70753;47.908;11.274;2023-11-21T10:42:01;94372.94;;;10.86;63.22
81274;BME280;70753;47.908;11.274;2023-11-21T10:44:48;94380.94;;;11.00;62.32
81274;BME280;70753;47.908;11.274;2023-11-21T10:47:33;94375.72;;;11.22;62.44
81274;BME280;70753;47.908;11.274;2023-11-21T10:50:19;94369.31;;;11.09;61.79
81274;BME280;70753;47.908;11.274;2023-11-21T10:53:05;94369.00;;;10.97;61.53
81274;BME280;70753;47.908;11.274;2023-11-21T10:56:01;94378.53;;;10.71;63.44
81274;BME280;70753;47.908;11.274;2023-11-21T10:58:49;94371.41;;;11.12;62.86
81274;BME280;70753;47.908;11.274;2023-11-21T11:01:35;94377.22;;;11.14;62.98
81274;BME280;70753;47.908;11.274;2023-11-21T11:04:22;94378.22;;;11.18;60.71
81274;BME280;70753;47.908;11.274;2023-11-21T11:07:11;94369.38;;;11.04;62.89
81274;BME280;70753;47.908;11.274;2023-11-21T11:09:58;94370.63;;;10.66;63.68
81274;BME280;70753;47.908;11.274;2023-11-21T11:12:45;94377.28;;;10.50;64.03
81274;BME280;70753;47.908;11.274;2023-11-21T11:15:33;94377.63;;;10.62;64.59
81274;BME280;70753;47.908;11.274;2023-11-21T11:18:19;94375.88;;;10.71;64.16
81274;BME280;70753;47.908;11.274;2023-11-21T11:21:11;94375.44;;;10.64;65.70
81274;BME280;70753;47.908;11.274;2023-11-21T11:24:13;94370.03;;;10.82;66.27
81274;BME280;70753;47.908;11.274;2023-11-21T11:27:06;94373.31;;;10.93;64.55
81274;BME280;70753;47.908;11.274;2023-11-21T11:30:07;94373.88;;;10.63;65.47
81274;BME280;70753;47.908;11.274;2023-11-21T11:33:06;94365.22;;;10.71;66.21
81274;BME280;70753;47.908;11.274;2023-11-21T11:36:00;94375.16;;;9.96;69.23
81274;BME280;70753;47.908;11.274;2023-11-21T11:38:47;94363.00;;;10.09;68.84
81274;BME280;70753;47.908;11.274;2023-11-21T11:41:34;94372.34;;;10.89;65.88
81274;BME280;70753;47.908;11.274;2023-11-21T11:44:51;94371.59;;;11.29;64.16
81274;BME280;70753;47.908;11.274;2023-11-21T11:47:37;94374.09;;;12.02;62.58
81274;BME280;70753;47.908;11.274;2023-11-21T11:50:24;94358.91;;;11.89;61.51
81274;BME280;70753;47.908;11.274;2023-11-21T11:53:13;94365.16;;;12.07;61.17
81274;BME280;70753;47.908;11.274;2023-11-21T11:56:19;94368.38;;;11.95;62.82
81274;BME280;70753;47.908;11.274;2023-11-21T11:59:06;94353.53;;;12.25;61.20
81274;BME280;70753;47.908;11.274;2023-11-21T12:01:52;94348.78;;;12.44;61.71
81274;BME280;70753;47.908;11.274;2023-11-21T12:04:41;94359.44;;;12.58;61.12
81274;BME280;70753;47.908;11.274;2023-11-21T12:07:41;94351.09;;;12.59;60.98
81274;BME280;70753;47.908;11.274;2023-11-21T12:10:28;94355.09;;;12.48;62.24
81274;BME280;70753;47.908;11.274;2023-11-21T12:13:15;94358.22;;;12.42;62.06
81274;BME280;70753;47.908;11.274;2023-11-21T12:16:01;94355.91;;;12.49;61.53
81274;BME280;70753;47.908;11.274;2023-11-21T12:18:47;94353.19;;;12.40;63.02
81274;BME280;70753;47.908;11.274;2023-11-21T12:21:33;94358.41;;;12.45;62.26
81274;BME280;70753;47.908;11.274;2023-11-21T12:24:21;94361.09;;;12.45;62.20
81274;BME280;70753;47.908;11.274;2023-11-21T12:27:06;94363.69;;;12.37;63.11
81274;BME280;70753;47.908;11.274;2023-11-21T12:29:52;94366.50;;;12.18;62.28
81274;BME280;70753;47.908;11.274;2023-11-21T12:32:38;94365.81;;;12.26;62.52
81274;BME280;70753;47.908;11.274;2023-11-21T12:35:26;94374.66;;;12.13;62.88
81274;BME280;70753;47.908;11.274;2023-11-21T12:38:13;94371.75;;;12.23;60.42
81274;BME280;70753;47.908;11.274;2023-11-21T12:41:00;94374.72;;;11.86;62.08
81274;BME280;70753;47.908;11.274;2023-11-21T12:43:46;94375.03;;;11.84;62.50
81274;BME280;70753;47.908;11.274;2023-11-21T12:46:32;94372.84;;;11.73;63.39
81274;BME280;70753;47.908;11.274;2023-11-21T12:49:17;94375.91;;;11.93;62.24
81274;BME280;70753;47.908;11.274;2023-11-21T12:52:04;94376.53;;;11.77;63.26
81274;BME280;70753;47.908;11.274;2023-11-21T12:54:51;94373.53;;;11.92;62.81
81274;BME280;70753;47.908;11.274;2023-11-21T12:57:41;94373.75;;;11.82;63.51
81274;BME280;70753;47.908;11.274;2023-11-21T13:00:29;94378.28;;;11.81;63.96
81274;BME280;70753;47.908;11.274;2023-11-21T13:03:16;94378.38;;;11.63;64.45
81274;BME280;70753;47.908;11.274;2023-11-21T13:06:04;94383.03;;;11.71;63.65
81274;BME280;70753;47.908;11.274;2023-11-21T13:08:50;94384.41;;;11.00;64.46
81274;BME280;70753;47.908;11.274;2023-11-21T13:11:36;94384.75;;;10.66;64.92
81274;BME280;70753;47.908;11.274;2023-11-21T13:14:29;94384.19;;;10.51;65.41
81274;BME280;70753;47.908;11.274;2023-11-21T13:17:15;94388.03;;;10.07;66.17
81274;BME280;70753;47.908;11.274;2023-11-21T13:20:01;94383.50;;;10.45;66.02
81274;BME280;70753;47.908;11.274;2023-11-21T13:22:48;94384.25;;;10.46;66.04
81274;BME280;70753;47.908;11.274;2023-11-21T13:25:34;94388.56;;;10.28;66.72
81274;BME280;70753;47.908;11.274;2023-11-21T13:28:19;94385.78;;;10.33;66.90
81274;BME280;70753;47.908;11.274;2023-11-21T13:31:07;94403.53;;;10.24;67.14
81274;BME280;70753;47.908;11.274;2023-11-21T13:33:52;94399.13;;;10.15;67.37
81274;BME280;70753;47.908;11.274;2023-11-21T13:36:38;94400.50;;;10.12;67.62
81274;BME280;70753;47.908;11.274;2023-11-21T13:39:24;94403.59;;;10.00;67.62
81274;BME280;70753;47.908;11.274;2023-11-21T13:42:10;94407.47;;;9.89;67.89
81274;BME280;70753;47.908;11.274;2023-11-21T13:44:56;94409.53;;;9.92;67.76
81274;BME280;70753;47.908;11.274;2023-11-21T13:47:43;94403.06;;;9.80;68.52
81274;BME280;70753;47.908;11.274;2023-11-21T13:50:29;94411.28;;;9.83;68.40
81274;BME280;70753;47.908;11.274;2023-11-21T13:53:15;94411.84;;;9.80;68.74
81274;BME280;70753;47.908;11.274;2023-11-21T13:56:00;94408.09;;;9.81;68.73
81274;BME280;70753;47.908;11.274;2023-11-21T13:58:46;94415.50;;;9.66;68.73
81274;BME280;70753;47.908;11.274;2023-11-21T14:01:32;94416.22;;;9.71;68.24
81274;BME280;70753;47.908;11.274;2023-11-21T14:04:19;94417.00;;;9.72;68.06
81274;BME280;70753;47.908;11.274;2023-11-21T14:07:05;94415.34;;;9.76;68.47
81274;BME280;70753;47.908;11.274;2023-11-21T14:09:50;94416.88;;;9.82;68.30
81274;BME280;70753;47.908;11.274;2023-11-21T14:12:36;94419.38;;;9.73;68.37
81274;BME280;70753;47.908;11.274;2023-11-21T14:15:22;94417.41;;;9.60;68.62
81274;BME280;70753;47.908;11.274;2023-11-21T14:18:08;94425.19;;;9.57;69.35
81274;BME280;70753;47.908;11.274;2023-11-21T14:20:55;94421.56;;;9.48;68.88
81274;BME280;70753;47.908;11.274;2023-11-21T14:23:40;94423.38;;;9.52;69.76
81274;BME280;70753;47.908;11.274;2023-11-21T14:26:26;94420.56;;;9.62;69.61
81274;BME280;70753;47.908;11.274;2023-11-21T14:29:12;94429.59;;;9.66;69.97
81274;BME280;70753;47.908;11.274;2023-11-21T14:31:58;94426.50;;;9.78;69.69
81274;BME280;70753;47.908;11.274;2023-11-21T14:34:43;94425.00;;;9.90;69.39
81274;BME280;70753;47.908;11.274;2023-11-21T14:37:30;94428.97;;;9.93;69.50
81274;BME280;70753;47.908;11.274;2023-11-21T14:40:16;94425.16;;;9.80;69.75